Aérodrome :







RETROUVEZ-NOUS SUR...

 
LOGIN :

S'inscrire | Disclaimer

   EN    FR    IT 

 









Légende :    VFR   VFR Marginal   IFR   IFR Intensif   IFR Très Intensif
Visi : 
Plafond : 
>= 8 km
>= 3000ft
5 à 8 km
1000 à 3000 ft
1500m à 5 km
500 à 1000 ft
800 à 1500m
200 à 500 ft
< 800m
< 200 ft
Symboles :   Orages  Brouillard  Fortes neiges  Fortes précipitations  Vent > 20 kt






- Altitude de l'aérodrome : 172 ft
- Code IATA : YYY


CYYY - Mont Joli

DERNIER METAR :
  • 020700Z 04009KT 3/4SM R06/P6000FT/D -RA BR OVC003 00/00 A2986 RMK SF8 SLP117

METARs EXPIRÉS :
  • 020600Z 05007KT 3/4SM R06/4500FT/U -RA BR OVC003 00/00 A2988 RMK SF8 SLP121
  • 020541Z 05008KT 3/4SM R06/2600FT/N -RA BR OVC002 00/00 A2988 RMK SF8 SLP121
  • 020500Z 06009KT 1SM R06/3000FT/D -RA BR OVC002 00/00 A2987 RMK SF8 SLP120
  • 020452Z 05009KT 1SM R06/3500V6000FT/D -RA BR OVC002 00/M00 A2987 RMK SF8 SLP120

TAF AMD TAF CYYY
Valide du 02 à 04h jusqu'au 02 à 14h UTC


020405Z 0204/0214 06010KT 3/4SM -SN OVC002
TEMPO 0204/0206 2SM -RA BR OVC004
FM020600 05012G22KT 2SM -RA BR OVC003
TEMPO 0206/0214 1SM -RA BR OVC002 RMK NXT FCST BY 020800Z



MET'MAP, la Météo Aéronautique d'un coup d'oeil ! - Copyright ORBIFLY Décembre 2007 - Disclaimer

ORBIFLY MET'MAP TEAM :

Programmation & Développement : Alexandra Zaïnal
Sur une idée originale de : Baudouin d'Aumeries
Assistance à la programmation : Marc-Olivier Méhu
Soutien technique & logistique : Manuel Goepfert

Contact : metmap@orbifly.com




SOURCES & CREDITS :

   NOAA